sensor_id;sensor_type;location;lat;lon;timestamp;temperature;humidity
17968;DHT22;9109;48.050;11.696;2023-12-04T00:02:00;-5.20;99.90
17968;DHT22;9109;48.050;11.696;2023-12-04T00:05:01;-5.30;99.90
17968;DHT22;9109;48.050;11.696;2023-12-04T00:08:05;-5.40;99.90
17968;DHT22;9109;48.050;11.696;2023-12-04T00:11:09;-5.60;99.90
17968;DHT22;9109;48.050;11.696;2023-12-04T00:14:11;-5.70;99.90
17968;DHT22;9109;48.050;11.696;2023-12-04T00:17:13;-5.90;99.90
17968;DHT22;9109;48.050;11.696;2023-12-04T00:20:19;-5.90;99.90
17968;DHT22;9109;48.050;11.696;2023-12-04T00:23:24;-5.80;99.90
17968;DHT22;9109;48.050;11.696;2023-12-04T00:26:32;-5.80;99.90
17968;DHT22;9109;48.050;11.696;2023-12-04T00:29:34;-5.90;99.90
17968;DHT22;9109;48.050;11.696;2023-12-04T00:32:36;-6.00;99.90
17968;DHT22;9109;48.050;11.696;2023-12-04T00:35:38;-5.90;99.90
17968;DHT22;9109;48.050;11.696;2023-12-04T00:38:42;-5.90;99.90
17968;DHT22;9109;48.050;11.696;2023-12-04T00:41:43;-5.90;99.90
17968;DHT22;9109;48.050;11.696;2023-12-04T00:44:51;-6.00;99.90
17968;DHT22;9109;48.050;11.696;2023-12-04T00:47:52;-6.00;99.90
17968;DHT22;9109;48.050;11.696;2023-12-04T00:50:54;-6.10;99.90
17968;DHT22;9109;48.050;11.696;2023-12-04T00:53:58;-6.10;99.90
17968;DHT22;9109;48.050;11.696;2023-12-04T00:57:02;-6.10;99.90
17968;DHT22;9109;48.050;11.696;2023-12-04T01:00:05;-6.10;99.90
17968;DHT22;9109;48.050;11.696;2023-12-04T01:03:10;-6.00;99.90
17968;DHT22;9109;48.050;11.696;2023-12-04T01:06:20;-6.10;99.90
17968;DHT22;9109;48.050;11.696;2023-12-04T01:09:24;-6.00;99.90
17968;DHT22;9109;48.050;11.696;2023-12-04T01:12:26;-6.00;99.90
17968;DHT22;9109;48.050;11.696;2023-12-04T01:15:28;-6.00;99.90
17968;DHT22;9109;48.050;11.696;2023-12-04T01:18:34;-6.00;99.90
17968;DHT22;9109;48.050;11.696;2023-12-04T01:21:41;-5.90;99.90
17968;DHT22;9109;48.050;11.696;2023-12-04T01:24:45;-5.80;99.90
17968;DHT22;9109;48.050;11.696;2023-12-04T01:27:46;-5.70;99.90
17968;DHT22;9109;48.050;11.696;2023-12-04T01:30:48;-5.70;99.90
17968;DHT22;9109;48.050;11.696;2023-12-04T01:33:52;-5.80;99.90
17968;DHT22;9109;48.050;11.696;2023-12-04T01:36:56;-5.60;99.90
17968;DHT22;9109;48.050;11.696;2023-12-04T01:40:02;-5.40;99.90
17968;DHT22;9109;48.050;11.696;2023-12-04T01:43:08;-5.20;99.90
17968;DHT22;9109;48.050;11.696;2023-12-04T01:46:10;-5.00;99.90
17968;DHT22;9109;48.050;11.696;2023-12-04T01:49:12;-5.00;99.90
17968;DHT22;9109;48.050;11.696;2023-12-04T01:52:16;-5.10;99.90
17968;DHT22;9109;48.050;11.696;2023-12-04T01:55:28;-5.20;99.90
17968;DHT22;9109;48.050;11.696;2023-12-04T01:58:32;-5.20;99.90
17968;DHT22;9109;48.050;11.696;2023-12-04T02:01:36;-5.20;99.90
17968;DHT22;9109;48.050;11.696;2023-12-04T02:04:40;-5.10;99.90
17968;DHT22;9109;48.050;11.696;2023-12-04T02:07:44;-5.20;99.90
17968;DHT22;9109;48.050;11.696;2023-12-04T02:10:47;-5.20;99.90
17968;DHT22;9109;48.050;11.696;2023-12-04T02:13:50;-5.30;99.90
17968;DHT22;9109;48.050;11.696;2023-12-04T02:16:52;-5.40;99.90
17968;DHT22;9109;48.050;11.696;2023-12-04T02:19:55;-5.30;99.90
17968;DHT22;9109;48.050;11.696;2023-12-04T02:22:58;-5.30;99.90
17968;DHT22;9109;48.050;11.696;2023-12-04T02:26:05;-5.20;99.90
17968;DHT22;9109;48.050;11.696;2023-12-04T02:29:14;-5.10;99.90
17968;DHT22;9109;48.050;11.696;2023-12-04T02:32:19;-5.00;99.90
17968;DHT22;9109;48.050;11.696;2023-12-04T02:35:23;-5.30;99.90
17968;DHT22;9109;48.050;11.696;2023-12-04T02:38:29;-5.40;99.90
17968;DHT22;9109;48.050;11.696;2023-12-04T02:41:32;-5.60;99.90
17968;DHT22;9109;48.050;11.696;2023-12-04T02:44:34;-5.70;99.90
17968;DHT22;9109;48.050;11.696;2023-12-04T02:47:36;-5.70;99.90
17968;DHT22;9109;48.050;11.696;2023-12-04T02:50:38;-5.70;99.90
17968;DHT22;9109;48.050;11.696;2023-12-04T02:53:40;-5.50;99.90
17968;DHT22;9109;48.050;11.696;2023-12-04T02:56:47;-5.40;99.90
17968;DHT22;9109;48.050;11.696;2023-12-04T02:59:49;-5.30;99.90
17968;DHT22;9109;48.050;11.696;2023-12-04T03:02:53;-5.50;99.90
17968;DHT22;9109;48.050;11.696;2023-12-04T03:05:55;-5.70;99.90
17968;DHT22;9109;48.050;11.696;2023-12-04T03:09:01;-5.70;99.90
17968;DHT22;9109;48.050;11.696;2023-12-04T03:12:05;-5.50;99.90
17968;DHT22;9109;48.050;11.696;2023-12-04T03:15:07;-5.30;99.90
17968;DHT22;9109;48.050;11.696;2023-12-04T03:18:14;-5.20;99.90
17968;DHT22;9109;48.050;11.696;2023-12-04T03:21:20;-5.10;99.90
17968;DHT22;9109;48.050;11.696;2023-12-04T03:24:22;-5.20;99.90
17968;DHT22;9109;48.050;11.696;2023-12-04T03:27:36;-5.10;99.90
17968;DHT22;9109;48.050;11.696;2023-12-04T03:30:45;-5.10;99.90
17968;DHT22;9109;48.050;11.696;2023-12-04T03:33:50;-5.20;99.90
17968;DHT22;9109;48.050;11.696;2023-12-04T03:36:55;-5.20;99.90
17968;DHT22;9109;48.050;11.696;2023-12-04T03:39:59;-5.10;99.90
17968;DHT22;9109;48.050;11.696;2023-12-04T03:43:02;-5.40;99.90
17968;DHT22;9109;48.050;11.696;2023-12-04T03:46:05;-5.80;99.90
17968;DHT22;9109;48.050;11.696;2023-12-04T03:49:09;-6.00;99.90
17968;DHT22;9109;48.050;11.696;2023-12-04T03:52:10;-6.10;99.90
17968;DHT22;9109;48.050;11.696;2023-12-04T03:55:20;-5.80;99.90
17968;DHT22;9109;48.050;11.696;2023-12-04T03:58:23;-5.70;99.90
17968;DHT22;9109;48.050;11.696;2023-12-04T04:01:25;-5.60;99.90
17968;DHT22;9109;48.050;11.696;2023-12-04T04:04:29;-5.60;99.90
17968;DHT22;9109;48.050;11.696;2023-12-04T04:07:31;-5.50;99.90
17968;DHT22;9109;48.050;11.696;2023-12-04T04:10:33;-5.40;99.90
17968;DHT22;9109;48.050;11.696;2023-12-04T04:13:37;-5.40;99.90
17968;DHT22;9109;48.050;11.696;2023-12-04T04:16:40;-5.40;99.90
17968;DHT22;9109;48.050;11.696;2023-12-04T04:19:41;-5.30;99.90
17968;DHT22;9109;48.050;11.696;2023-12-04T04:22:43;-5.30;99.90
17968;DHT22;9109;48.050;11.696;2023-12-04T04:25:53;-5.30;99.90
17968;DHT22;9109;48.050;11.696;2023-12-04T04:28:58;-5.30;99.90
17968;DHT22;9109;48.050;11.696;2023-12-04T04:32:02;-5.30;99.90
17968;DHT22;9109;48.050;11.696;2023-12-04T04:35:04;-5.20;99.90
17968;DHT22;9109;48.050;11.696;2023-12-04T04:38:09;-5.50;99.90
17968;DHT22;9109;48.050;11.696;2023-12-04T04:41:14;-6.10;99.90
17968;DHT22;9109;48.050;11.696;2023-12-04T04:44:19;-6.50;99.90
17968;DHT22;9109;48.050;11.696;2023-12-04T04:47:23;-6.70;99.90
17968;DHT22;9109;48.050;11.696;2023-12-04T04:50:30;-6.50;99.90
17968;DHT22;9109;48.050;11.696;2023-12-04T04:53:32;-6.20;99.90
17968;DHT22;9109;48.050;11.696;2023-12-04T04:56:34;-5.90;99.90
17968;DHT22;9109;48.050;11.696;2023-12-04T04:59:37;-6.10;99.90
17968;DHT22;9109;48.050;11.696;2023-12-04T05:02:39;-5.90;99.90
17968;DHT22;9109;48.050;11.696;2023-12-04T05:05:41;-5.70;99.90
17968;DHT22;9109;48.050;11.696;2023-12-04T05:08:43;-5.90;99.90
17968;DHT22;9109;48.050;11.696;2023-12-04T05:11:47;-5.90;99.90
17968;DHT22;9109;48.050;11.696;2023-12-04T05:14:51;-6.00;99.90
17968;DHT22;9109;48.050;11.696;2023-12-04T05:17:56;-6.50;99.90
17968;DHT22;9109;48.050;11.696;2023-12-04T05:21:08;-6.40;99.90
17968;DHT22;9109;48.050;11.696;2023-12-04T05:24:10;-6.20;99.90
17968;DHT22;9109;48.050;11.696;2023-12-04T05:27:15;-6.00;99.90
17968;DHT22;9109;48.050;11.696;2023-12-04T05:30:21;-5.80;99.90
17968;DHT22;9109;48.050;11.696;2023-12-04T05:33:24;-6.00;99.90
17968;DHT22;9109;48.050;11.696;2023-12-04T05:36:27;-6.20;99.90
17968;DHT22;9109;48.050;11.696;2023-12-04T05:39:29;-6.40;99.90
17968;DHT22;9109;48.050;11.696;2023-12-04T05:42:39;-6.50;99.90
17968;DHT22;9109;48.050;11.696;2023-12-04T05:45:47;-6.70;99.90
17968;DHT22;9109;48.050;11.696;2023-12-04T05:48:49;-6.80;99.90
17968;DHT22;9109;48.050;11.696;2023-12-04T05:51:52;-6.60;99.90
17968;DHT22;9109;48.050;11.696;2023-12-04T05:54:55;-6.60;99.90
17968;DHT22;9109;48.050;11.696;2023-12-04T05:57:57;-6.70;99.90
17968;DHT22;9109;48.050;11.696;2023-12-04T06:01:06;-6.90;99.90
17968;DHT22;9109;48.050;11.696;2023-12-04T06:04:08;-6.80;99.90
17968;DHT22;9109;48.050;11.696;2023-12-04T06:07:10;-6.60;99.90
17968;DHT22;9109;48.050;11.696;2023-12-04T06:10:15;-6.60;99.90
17968;DHT22;9109;48.050;11.696;2023-12-04T06:13:19;-6.70;99.90
17968;DHT22;9109;48.050;11.696;2023-12-04T06:16:30;-7.20;99.90
17968;DHT22;9109;48.050;11.696;2023-12-04T06:19:39;-6.90;99.90
17968;DHT22;9109;48.050;11.696;2023-12-04T06:22:42;-6.50;99.90
17968;DHT22;9109;48.050;11.696;2023-12-04T06:25:47;-6.60;99.90
17968;DHT22;9109;48.050;11.696;2023-12-04T06:28:52;-7.00;99.90
17968;DHT22;9109;48.050;11.696;2023-12-04T06:31:58;-7.20;99.90
17968;DHT22;9109;48.050;11.696;2023-12-04T06:35:03;-7.00;99.90
17968;DHT22;9109;48.050;11.696;2023-12-04T06:38:26;-6.80;99.90
17968;DHT22;9109;48.050;11.696;2023-12-04T06:42:03;-6.90;99.90
17968;DHT22;9109;48.050;11.696;2023-12-04T06:45:22;-6.90;99.90
17968;DHT22;9109;48.050;11.696;2023-12-04T06:48:28;-6.60;99.90
17968;DHT22;9109;48.050;11.696;2023-12-04T06:51:30;-6.40;99.90
17968;DHT22;9109;48.050;11.696;2023-12-04T06:54:38;-6.30;99.90
17968;DHT22;9109;48.050;11.696;2023-12-04T06:57:57;-6.50;99.90
17968;DHT22;9109;48.050;11.696;2023-12-04T07:01:12;-6.70;99.90
17968;DHT22;9109;48.050;11.696;2023-12-04T07:04:30;-6.50;99.90
17968;DHT22;9109;48.050;11.696;2023-12-04T07:07:37;-6.60;99.90
17968;DHT22;9109;48.050;11.696;2023-12-04T07:10:40;-6.80;99.90
17968;DHT22;9109;48.050;11.696;2023-12-04T07:13:48;-6.60;99.90
17968;DHT22;9109;48.050;11.696;2023-12-04T07:16:51;-6.30;99.90
17968;DHT22;9109;48.050;11.696;2023-12-04T07:23:01;-6.20;99.90
17968;DHT22;9109;48.050;11.696;2023-12-04T07:26:08;-6.00;99.90
17968;DHT22;9109;48.050;11.696;2023-12-04T07:29:14;-5.90;99.90
17968;DHT22;9109;48.050;11.696;2023-12-04T07:32:30;-5.80;99.90
17968;DHT22;9109;48.050;11.696;2023-12-04T07:35:41;-5.80;99.90
17968;DHT22;9109;48.050;11.696;2023-12-04T07:38:51;-5.80;99.90
17968;DHT22;9109;48.050;11.696;2023-12-04T07:41:57;-6.00;99.90
17968;DHT22;9109;48.050;11.696;2023-12-04T07:45:08;-6.10;99.90
17968;DHT22;9109;48.050;11.696;2023-12-04T07:48:13;-6.30;99.90
17968;DHT22;9109;48.050;11.696;2023-12-04T07:51:16;-6.30;99.90
17968;DHT22;9109;48.050;11.696;2023-12-04T07:54:27;-6.30;99.90
17968;DHT22;9109;48.050;11.696;2023-12-04T07:57:35;-6.20;99.90
17968;DHT22;9109;48.050;11.696;2023-12-04T08:00:39;-6.30;99.90
17968;DHT22;9109;48.050;11.696;2023-12-04T08:03:45;-6.50;99.90
17968;DHT22;9109;48.050;11.696;2023-12-04T08:06:51;-6.50;99.90
17968;DHT22;9109;48.050;11.696;2023-12-04T08:09:59;-6.40;99.90
17968;DHT22;9109;48.050;11.696;2023-12-04T08:13:06;-6.40;99.90
17968;DHT22;9109;48.050;11.696;2023-12-04T08:16:17;-6.40;99.90
17968;DHT22;9109;48.050;11.696;2023-12-04T08:19:44;-6.40;99.90
17968;DHT22;9109;48.050;11.696;2023-12-04T08:23:12;-6.30;99.90
17968;DHT22;9109;48.050;11.696;2023-12-04T08:31:31;-6.10;99.90
17968;DHT22;9109;48.050;11.696;2023-12-04T08:34:59;-5.80;99.90
17968;DHT22;9109;48.050;11.696;2023-12-04T08:38:06;-5.50;99.90
17968;DHT22;9109;48.050;11.696;2023-12-04T08:41:08;-5.20;99.90
17968;DHT22;9109;48.050;11.696;2023-12-04T08:44:13;-5.10;99.90
17968;DHT22;9109;48.050;11.696;2023-12-04T08:47:15;-5.10;99.90
17968;DHT22;9109;48.050;11.696;2023-12-04T08:50:18;-4.90;99.90
17968;DHT22;9109;48.050;11.696;2023-12-04T08:53:24;-4.80;99.90
17968;DHT22;9109;48.050;11.696;2023-12-04T08:56:27;-4.80;99.90
17968;DHT22;9109;48.050;11.696;2023-12-04T08:59:39;-4.90;99.90
17968;DHT22;9109;48.050;11.696;2023-12-04T09:02:48;-4.70;99.90
17968;DHT22;9109;48.050;11.696;2023-12-04T09:05:56;-4.80;99.90
17968;DHT22;9109;48.050;11.696;2023-12-04T09:08:58;-4.70;99.90
17968;DHT22;9109;48.050;11.696;2023-12-04T09:12:00;-4.60;99.90
17968;DHT22;9109;48.050;11.696;2023-12-04T09:15:05;-4.50;99.90
17968;DHT22;9109;48.050;11.696;2023-12-04T09:18:10;-4.40;99.90
17968;DHT22;9109;48.050;11.696;2023-12-04T09:21:17;-4.50;99.90
17968;DHT22;9109;48.050;11.696;2023-12-04T09:24:20;-4.50;99.90
17968;DHT22;9109;48.050;11.696;2023-12-04T09:27:26;-4.40;99.90
17968;DHT22;9109;48.050;11.696;2023-12-04T09:30:35;-4.20;99.90
17968;DHT22;9109;48.050;11.696;2023-12-04T09:33:39;-4.60;99.90
17968;DHT22;9109;48.050;11.696;2023-12-04T09:36:43;-4.70;99.90
17968;DHT22;9109;48.050;11.696;2023-12-04T09:39:46;-4.90;99.90
17968;DHT22;9109;48.050;11.696;2023-12-04T09:42:53;-4.60;99.90
17968;DHT22;9109;48.050;11.696;2023-12-04T09:45:56;-4.30;99.90
17968;DHT22;9109;48.050;11.696;2023-12-04T09:49:04;-4.10;99.90
17968;DHT22;9109;48.050;11.696;2023-12-04T09:52:06;-3.90;99.90
17968;DHT22;9109;48.050;11.696;2023-12-04T09:55:15;-3.80;99.90
17968;DHT22;9109;48.050;11.696;2023-12-04T09:58:23;-3.80;99.90
17968;DHT22;9109;48.050;11.696;2023-12-04T10:01:34;-3.70;99.90
17968;DHT22;9109;48.050;11.696;2023-12-04T10:04:45;-3.60;99.90
17968;DHT22;9109;48.050;11.696;2023-12-04T10:07:49;-3.40;99.90
17968;DHT22;9109;48.050;11.696;2023-12-04T10:10:50;-3.50;99.90
17968;DHT22;9109;48.050;11.696;2023-12-04T10:13:54;-4.00;99.90
17968;DHT22;9109;48.050;11.696;2023-12-04T10:17:12;-4.00;99.90
17968;DHT22;9109;48.050;11.696;2023-12-04T10:20:15;-3.90;99.90
17968;DHT22;9109;48.050;11.696;2023-12-04T10:23:37;-3.70;99.90
17968;DHT22;9109;48.050;11.696;2023-12-04T10:26:50;-3.70;99.90
17968;DHT22;9109;48.050;11.696;2023-12-04T10:29:52;-3.50;99.90
17968;DHT22;9109;48.050;11.696;2023-12-04T10:33:02;-3.40;99.90
17968;DHT22;9109;48.050;11.696;2023-12-04T10:36:11;-3.30;99.90
17968;DHT22;9109;48.050;11.696;2023-12-04T10:39:13;-3.20;99.90
17968;DHT22;9109;48.050;11.696;2023-12-04T10:42:24;-3.10;99.90
17968;DHT22;9109;48.050;11.696;2023-12-04T10:45:27;-3.10;99.90
17968;DHT22;9109;48.050;11.696;2023-12-04T10:48:35;-3.00;99.90
17968;DHT22;9109;48.050;11.696;2023-12-04T10:51:40;-2.90;99.90
17968;DHT22;9109;48.050;11.696;2023-12-04T10:54:44;-2.80;99.90
17968;DHT22;9109;48.050;11.696;2023-12-04T10:57:55;-2.80;99.90
17968;DHT22;9109;48.050;11.696;2023-12-04T11:00:58;-2.60;99.90
17968;DHT22;9109;48.050;11.696;2023-12-04T11:04:09;-2.70;99.90
17968;DHT22;9109;48.050;11.696;2023-12-04T11:07:15;-2.70;99.90
17968;DHT22;9109;48.050;11.696;2023-12-04T11:10:22;-2.80;99.90
17968;DHT22;9109;48.050;11.696;2023-12-04T11:13:27;-2.80;99.90
17968;DHT22;9109;48.050;11.696;2023-12-04T11:16:40;-2.70;99.90
17968;DHT22;9109;48.050;11.696;2023-12-04T11:19:54;-2.70;99.90
17968;DHT22;9109;48.050;11.696;2023-12-04T11:23:01;-2.80;99.90
17968;DHT22;9109;48.050;11.696;2023-12-04T11:26:09;-2.80;99.90
17968;DHT22;9109;48.050;11.696;2023-12-04T11:29:14;-2.80;99.90
17968;DHT22;9109;48.050;11.696;2023-12-04T11:32:19;-2.80;99.90
17968;DHT22;9109;48.050;11.696;2023-12-04T11:35:27;-2.80;99.90
17968;DHT22;9109;48.050;11.696;2023-12-04T11:38:32;-2.70;99.90
17968;DHT22;9109;48.050;11.696;2023-12-04T11:41:40;-2.70;99.90
17968;DHT22;9109;48.050;11.696;2023-12-04T11:44:44;-2.80;99.90
17968;DHT22;9109;48.050;11.696;2023-12-04T11:47:55;-2.80;99.90
17968;DHT22;9109;48.050;11.696;2023-12-04T11:51:01;-2.90;99.90
17968;DHT22;9109;48.050;11.696;2023-12-04T11:54:03;-3.00;99.90
17968;DHT22;9109;48.050;11.696;2023-12-04T11:57:21;-2.90;99.90
17968;DHT22;9109;48.050;11.696;2023-12-04T12:00:25;-2.90;99.90
17968;DHT22;9109;48.050;11.696;2023-12-04T12:03:27;-2.80;99.90
17968;DHT22;9109;48.050;11.696;2023-12-04T12:06:31;-2.80;99.90
17968;DHT22;9109;48.050;11.696;2023-12-04T12:09:33;-2.80;99.90
17968;DHT22;9109;48.050;11.696;2023-12-04T12:12:35;-2.70;99.90
17968;DHT22;9109;48.050;11.696;2023-12-04T12:15:37;-2.70;99.90
17968;DHT22;9109;48.050;11.696;2023-12-04T12:18:49;-2.60;99.90
17968;DHT22;9109;48.050;11.696;2023-12-04T12:22:00;-2.70;99.90
17968;DHT22;9109;48.050;11.696;2023-12-04T12:25:06;-2.70;99.90
17968;DHT22;9109;48.050;11.696;2023-12-04T12:28:12;-2.60;99.90
17968;DHT22;9109;48.050;11.696;2023-12-04T12:31:18;-2.60;99.90
17968;DHT22;9109;48.050;11.696;2023-12-04T12:34:26;-2.60;99.90
17968;DHT22;9109;48.050;11.696;2023-12-04T12:37:39;-2.50;99.90
17968;DHT22;9109;48.050;11.696;2023-12-04T12:40:50;-2.60;99.90
17968;DHT22;9109;48.050;11.696;2023-12-04T12:44:01;-2.60;99.90
17968;DHT22;9109;48.050;11.696;2023-12-04T12:47:06;-2.80;99.90
17968;DHT22;9109;48.050;11.696;2023-12-04T12:50:11;-2.70;99.90
17968;DHT22;9109;48.050;11.696;2023-12-04T12:53:20;-2.70;99.90
17968;DHT22;9109;48.050;11.696;2023-12-04T12:56:22;-2.60;99.90
17968;DHT22;9109;48.050;11.696;2023-12-04T12:59:24;-2.50;99.90
17968;DHT22;9109;48.050;11.696;2023-12-04T13:02:26;-2.30;99.90
17968;DHT22;9109;48.050;11.696;2023-12-04T13:05:34;-2.30;99.90
17968;DHT22;9109;48.050;11.696;2023-12-04T13:08:43;-2.10;99.90
17968;DHT22;9109;48.050;11.696;2023-12-04T13:11:48;-2.10;99.90
17968;DHT22;9109;48.050;11.696;2023-12-04T13:14:52;-2.20;99.90
17968;DHT22;9109;48.050;11.696;2023-12-04T13:18:03;-2.20;99.90
17968;DHT22;9109;48.050;11.696;2023-12-04T13:21:17;-2.50;99.90
17968;DHT22;9109;48.050;11.696;2023-12-04T13:24:23;-2.70;99.90
17968;DHT22;9109;48.050;11.696;2023-12-04T13:27:24;-2.60;99.90
17968;DHT22;9109;48.050;11.696;2023-12-04T13:30:30;-2.70;99.90
17968;DHT22;9109;48.050;11.696;2023-12-04T13:33:35;-2.70;99.90
17968;DHT22;9109;48.050;11.696;2023-12-04T13:36:37;-2.60;99.90
17968;DHT22;9109;48.050;11.696;2023-12-04T13:39:40;-2.60;99.90
17968;DHT22;9109;48.050;11.696;2023-12-04T13:42:49;-2.50;99.90
17968;DHT22;9109;48.050;11.696;2023-12-04T13:46:08;-2.50;99.90
17968;DHT22;9109;48.050;11.696;2023-12-04T13:49:13;-2.50;99.90
17968;DHT22;9109;48.050;11.696;2023-12-04T13:52:16;-2.40;99.90
17968;DHT22;9109;48.050;11.696;2023-12-04T13:55:29;-2.50;99.90
17968;DHT22;9109;48.050;11.696;2023-12-04T13:58:48;-2.50;99.90
17968;DHT22;9109;48.050;11.696;2023-12-04T14:01:57;-2.50;99.90
17968;DHT22;9109;48.050;11.696;2023-12-04T14:05:03;-2.50;99.90
17968;DHT22;9109;48.050;11.696;2023-12-04T14:08:05;-2.50;99.90
17968;DHT22;9109;48.050;11.696;2023-12-04T14:11:14;-2.40;99.90
17968;DHT22;9109;48.050;11.696;2023-12-04T14:14:17;-2.50;99.90
17968;DHT22;9109;48.050;11.696;2023-12-04T14:17:20;-2.50;99.90
17968;DHT22;9109;48.050;11.696;2023-12-04T14:20:22;-2.50;99.90
17968;DHT22;9109;48.050;11.696;2023-12-04T14:23:27;-2.50;99.90
17968;DHT22;9109;48.050;11.696;2023-12-04T14:26:30;-2.50;99.90
17968;DHT22;9109;48.050;11.696;2023-12-04T14:29:44;-2.50;99.90
17968;DHT22;9109;48.050;11.696;2023-12-04T14:32:50;-2.50;99.90
17968;DHT22;9109;48.050;11.696;2023-12-04T14:35:54;-2.60;99.90
17968;DHT22;9109;48.050;11.696;2023-12-04T14:38:57;-2.60;99.90
17968;DHT22;9109;48.050;11.696;2023-12-04T14:42:02;-2.60;99.90
17968;DHT22;9109;48.050;11.696;2023-12-04T14:45:07;-2.80;99.90
17968;DHT22;9109;48.050;11.696;2023-12-04T14:48:08;-2.80;99.90
17968;DHT22;9109;48.050;11.696;2023-12-04T14:51:14;-2.90;99.90
17968;DHT22;9109;48.050;11.696;2023-12-04T14:54:18;-3.00;99.90
17968;DHT22;9109;48.050;11.696;2023-12-04T14:57:42;-3.10;99.90
17968;DHT22;9109;48.050;11.696;2023-12-04T15:00:58;-3.20;99.90
17968;DHT22;9109;48.050;11.696;2023-12-04T15:04:16;-3.20;99.90
17968;DHT22;9109;48.050;11.696;2023-12-04T15:07:51;-3.30;99.90
17968;DHT22;9109;48.050;11.696;2023-12-04T15:11:13;-3.30;99.90
17968;DHT22;9109;48.050;11.696;2023-12-04T15:17:52;-3.30;99.90
17968;DHT22;9109;48.050;11.696;2023-12-04T15:21:00;-3.40;99.90
17968;DHT22;9109;48.050;11.696;2023-12-04T15:24:03;-3.40;99.90
17968;DHT22;9109;48.050;11.696;2023-12-04T15:27:07;-3.40;99.90
17968;DHT22;9109;48.050;11.696;2023-12-04T15:30:13;-3.40;99.90
17968;DHT22;9109;48.050;11.696;2023-12-04T15:33:17;-3.60;99.90
17968;DHT22;9109;48.050;11.696;2023-12-04T15:36:21;-3.90;99.90
17968;DHT22;9109;48.050;11.696;2023-12-04T15:39:25;-4.00;99.90
17968;DHT22;9109;48.050;11.696;2023-12-04T15:42:27;-4.20;99.90
17968;DHT22;9109;48.050;11.696;2023-12-04T15:45:32;-4.20;99.90
17968;DHT22;9109;48.050;11.696;2023-12-04T15:48:35;-4.20;99.90
17968;DHT22;9109;48.050;11.696;2023-12-04T15:51:40;-4.20;99.90
17968;DHT22;9109;48.050;11.696;2023-12-04T15:54:44;-4.10;99.90
17968;DHT22;9109;48.050;11.696;2023-12-04T15:57:47;-4.00;99.90
17968;DHT22;9109;48.050;11.696;2023-12-04T16:00:59;-3.80;99.90
17968;DHT22;9109;48.050;11.696;2023-12-04T16:04:01;-3.70;99.90
17968;DHT22;9109;48.050;11.696;2023-12-04T16:07:09;-3.80;99.90
17968;DHT22;9109;48.050;11.696;2023-12-04T16:10:14;-3.60;99.90
17968;DHT22;9109;48.050;11.696;2023-12-04T16:13:17;-3.50;99.90
17968;DHT22;9109;48.050;11.696;2023-12-04T16:16:21;-3.30;99.90
17968;DHT22;9109;48.050;11.696;2023-12-04T16:19:26;-3.20;99.90
17968;DHT22;9109;48.050;11.696;2023-12-04T16:22:37;-3.20;99.90
17968;DHT22;9109;48.050;11.696;2023-12-04T16:25:40;-3.10;99.90
17968;DHT22;9109;48.050;11.696;2023-12-04T16:28:45;-3.00;99.90
17968;DHT22;9109;48.050;11.696;2023-12-04T16:31:58;-3.00;99.90
17968;DHT22;9109;48.050;11.696;2023-12-04T16:35:08;-3.00;99.90
17968;DHT22;9109;48.050;11.696;2023-12-04T16:38:14;-2.90;99.90
17968;DHT22;9109;48.050;11.696;2023-12-04T16:41:19;-2.90;99.90
17968;DHT22;9109;48.050;11.696;2023-12-04T16:44:27;-2.80;99.90
17968;DHT22;9109;48.050;11.696;2023-12-04T16:47:40;-2.70;99.90
17968;DHT22;9109;48.050;11.696;2023-12-04T16:50:44;-2.70;99.90
17968;DHT22;9109;48.050;11.696;2023-12-04T16:53:53;-2.70;99.90
17968;DHT22;9109;48.050;11.696;2023-12-04T16:56:57;-2.80;99.90
17968;DHT22;9109;48.050;11.696;2023-12-04T17:00:03;-2.80;99.90
17968;DHT22;9109;48.050;11.696;2023-12-04T17:03:15;-2.80;99.90
17968;DHT22;9109;48.050;11.696;2023-12-04T17:06:21;-2.90;99.90
17968;DHT22;9109;48.050;11.696;2023-12-04T17:09:26;-2.80;99.90
17968;DHT22;9109;48.050;11.696;2023-12-04T17:12:31;-2.90;99.90
17968;DHT22;9109;48.050;11.696;2023-12-04T17:15:46;-2.90;99.90
17968;DHT22;9109;48.050;11.696;2023-12-04T17:18:53;-3.00;99.90
17968;DHT22;9109;48.050;11.696;2023-12-04T17:22:04;-3.00;99.90
17968;DHT22;9109;48.050;11.696;2023-12-04T17:25:10;-3.10;99.90
17968;DHT22;9109;48.050;11.696;2023-12-04T17:28:22;-3.10;99.90
17968;DHT22;9109;48.050;11.696;2023-12-04T17:31:26;-3.10;99.90
17968;DHT22;9109;48.050;11.696;2023-12-04T17:34:32;-3.20;99.90
17968;DHT22;9109;48.050;11.696;2023-12-04T17:37:48;-3.20;99.90
17968;DHT22;9109;48.050;11.696;2023-12-04T17:41:09;-3.20;99.90
17968;DHT22;9109;48.050;11.696;2023-12-04T17:44:12;-3.20;99.90
17968;DHT22;9109;48.050;11.696;2023-12-04T17:47:15;-3.30;99.90
17968;DHT22;9109;48.050;11.696;2023-12-04T17:50:28;-3.30;99.90
17968;DHT22;9109;48.050;11.696;2023-12-04T17:53:32;-3.30;99.90
17968;DHT22;9109;48.050;11.696;2023-12-04T17:56:35;-3.30;99.90
17968;DHT22;9109;48.050;11.696;2023-12-04T17:59:37;-3.30;99.90
17968;DHT22;9109;48.050;11.696;2023-12-04T18:02:41;-3.30;99.90
17968;DHT22;9109;48.050;11.696;2023-12-04T18:05:53;-3.30;99.90
17968;DHT22;9109;48.050;11.696;2023-12-04T18:09:01;-3.30;99.90
17968;DHT22;9109;48.050;11.696;2023-12-04T18:12:08;-3.40;99.90
17968;DHT22;9109;48.050;11.696;2023-12-04T18:15:13;-3.40;99.90
17968;DHT22;9109;48.050;11.696;2023-12-04T18:18:19;-3.50;99.90
17968;DHT22;9109;48.050;11.696;2023-12-04T18:21:26;-3.50;99.90
17968;DHT22;9109;48.050;11.696;2023-12-04T18:24:32;-3.50;99.90
17968;DHT22;9109;48.050;11.696;2023-12-04T18:27:34;-3.60;99.90
17968;DHT22;9109;48.050;11.696;2023-12-04T18:30:38;-3.70;99.90
17968;DHT22;9109;48.050;11.696;2023-12-04T18:33:45;-3.60;99.90
17968;DHT22;9109;48.050;11.696;2023-12-04T18:37:01;-3.60;99.90
17968;DHT22;9109;48.050;11.696;2023-12-04T18:40:13;-3.60;99.90
17968;DHT22;9109;48.050;11.696;2023-12-04T18:43:28;-3.50;99.90
17968;DHT22;9109;48.050;11.696;2023-12-04T18:46:44;-3.40;99.90
17968;DHT22;9109;48.050;11.696;2023-12-04T18:49:55;-3.40;99.90
17968;DHT22;9109;48.050;11.696;2023-12-04T18:53:01;-3.40;99.90
17968;DHT22;9109;48.050;11.696;2023-12-04T18:59:28;-3.40;99.90
17968;DHT22;9109;48.050;11.696;2023-12-04T19:02:32;-3.30;99.90
17968;DHT22;9109;48.050;11.696;2023-12-04T19:05:34;-3.30;99.90
17968;DHT22;9109;48.050;11.696;2023-12-04T19:08:37;-3.20;99.90
17968;DHT22;9109;48.050;11.696;2023-12-04T19:11:43;-3.20;99.90
17968;DHT22;9109;48.050;11.696;2023-12-04T19:14:47;-3.20;99.90
17968;DHT22;9109;48.050;11.696;2023-12-04T19:17:56;-3.20;99.90
17968;DHT22;9109;48.050;11.696;2023-12-04T19:21:00;-3.20;99.90
17968;DHT22;9109;48.050;11.696;2023-12-04T19:24:03;-3.20;99.90
17968;DHT22;9109;48.050;11.696;2023-12-04T19:27:06;-3.20;99.90
17968;DHT22;9109;48.050;11.696;2023-12-04T19:30:10;-3.10;99.90
17968;DHT22;9109;48.050;11.696;2023-12-04T19:33:14;-3.10;99.90
17968;DHT22;9109;48.050;11.696;2023-12-04T19:36:19;-3.10;99.90
17968;DHT22;9109;48.050;11.696;2023-12-04T19:39:22;-3.20;99.90
17968;DHT22;9109;48.050;11.696;2023-12-04T19:42:24;-3.20;99.90
17968;DHT22;9109;48.050;11.696;2023-12-04T19:45:31;-3.20;99.90
17968;DHT22;9109;48.050;11.696;2023-12-04T19:48:37;-3.10;99.90
17968;DHT22;9109;48.050;11.696;2023-12-04T19:51:42;-3.10;99.90